This is the latest recevied weather packets stored in our database for station/object GW1495. If no packets are shown the sender has not sent any weather packets the latest 10 day(s).
| Time | Temp. | Humidity | Pressure | Rain* | Wind** | Luminosity | Snow |
|---|---|---|---|---|---|---|---|
| 1777180334 | 13.33° C | 99% | 1016.9 hPa | 0 mm | - | - | - |
| 1777179652 | 13.33° C | 99% | 1016.9 hPa | 0 mm | - | - | - |
| 1777175664 | 13.89° C | 99% | 1016.9 hPa | 1.27 mm | - | - | - |
| 1777174570 | 14.44° C | 99% | 1016.5 hPa | 1.27 mm | - | - | - |
| 1777170649 | 13.89° C | 99% | 1016.9 hPa | 1.27 mm | - | - | - |
| 1777169539 | 13.89° C | 98% | 1016.5 hPa | 1.27 mm | - | - | - |
| 1777169191 | 13.89° C | 98% | 1016.5 hPa | 1.27 mm | - | - | - |
| 1777167746 | 14.44° C | 98% | 1016.2 hPa | 1.27 mm | - | - | - |
| 1777165944 | 15° C | 97% | 1015.9 hPa | 1.27 mm | - | - | - |
| 1777162340 | 16.67° C | 95% | 1015.5 hPa | 1.27 mm | - | - | - |
| 1777161994 | 16.67° C | 94% | 1015.5 hPa | 1.27 mm | - | - | - |
| 1777161617 | 17.22° C | 94% | 1015.2 hPa | 1.27 mm | - | - | - |
| 1777160547 | 17.78° C | 92% | 1014.9 hPa | 1.27 mm | - | - | - |
| 1777160189 | 18.33° C | 92% | 1014.9 hPa | 1.27 mm | - | - | - |
| 1777158743 | 18.33° C | 90% | 1014.9 hPa | 1.27 mm | - | - | - |
| 1777157679 | 20° C | 87% | 1014.9 hPa | 1.27 mm | - | - | - |
| 1777150815 | 20.56° C | 80% | 1014.9 hPa | 1.02 mm | - | - | - |
| 1777149388 | 20.56° C | 78% | 1014.9 hPa | 1.02 mm | - | - | - |
| 1777149020 | 20.56° C | 80% | 1014.9 hPa | 1.02 mm | - | - | - |
| 1777148655 | 20.56° C | 80% | 1015.2 hPa | 1.02 mm | - | - | - |
| 1777147975 | 20° C | 80% | 1015.2 hPa | 1.02 mm | - | - | - |
| 1777147250 | 20° C | 82% | 1015.2 hPa | 1.02 mm | - | - | - |
| 1777145776 | 20° C | 82% | 1015.5 hPa | 1.02 mm | - | - | - |
| 1777143993 | 18.89° C | 90% | 1015.9 hPa | 1.02 mm | - | - | - |
| 1777143284 | 18.89° C | 88% | 1016.2 hPa | 1.02 mm | - | - | - |
* Rain since midnight (hover to see other rain measurements)
** Current wind speed in m/s (hover to see current wind gust speed)